Huvudsida
METAR-TAF:

METAR-TAF

Flygplatser :

Kosrae Airport

Kosrae, Mikronesien

latitud: 05-21N, longitud: 162-57E, höjd: 3 m

Aktuellt väderrapport

Denna rapport gjordes för 5 timmar och 33 minuter sedan, klockan 05:50 UTC
Vind 4 kt från väst
Temperatur 31°C
Fuktighet 71%
Tryck 1009 hPa
Sikt: 16.1 km
Brutna moln på en höjd av 2300 ft
Brutna moln på en höjd av 30000 ft

METAR: PTSA 190550Z 27004KT 10SM BKN023 BKN300 31/25 A2981 RMK LAST

Tid: 22:23 (11:23 UTC)

Väderprognos

Denna rapport gjordes för 5 timmar och 57 minuter sedan, klockan 05:26 UTC
Prognos gäller från 19 kl. 06 UTC till 20 kl. 06 UTC
Vind 6 kt varierande vindriktning
Sikt: 10 km
Spridda moln på en höjd av 2000 ft

TAF: PTSA 190526Z 1906/2006 VRB06KT P6SM SCT020

Aktuella väderrapporter och prognoser från 4000 flygplatser (METAR- och TAF-rapporter).

De tillgängliga stationerna syns som gula och röda prickar på kartan.

För musen över prickarna för att se namnen på stationerna.

Klicka sedan för att få väderrapporter och prognoser.

För att ändra kartan: Klicka på de gröna knapparna med ett svart kors på för att zooma in; den gröna knappen med ett streck på för att zooma ut; eller på de gröna pilarna för angränsande kartor.


METAR-TAF: